createdAt,value
2018-06-05T00:02:15.941Z,99.90
2018-06-05T00:04:44.383Z,99.90
2018-06-05T00:07:12.877Z,99.90
2018-06-05T00:09:41.347Z,99.90
2018-06-05T00:12:09.807Z,99.90
2018-06-05T00:14:38.256Z,99.90
2018-06-05T00:17:07.385Z,99.90
2018-06-05T00:19:36.140Z,99.90
2018-06-05T00:22:04.670Z,99.90
2018-06-05T00:24:33.158Z,99.90
2018-06-05T00:27:01.654Z,99.90
2018-06-05T00:29:30.300Z,99.90
2018-06-05T00:31:58.751Z,99.90
2018-06-05T00:34:27.191Z,99.90
2018-06-05T00:36:55.988Z,99.90
2018-06-05T00:39:24.440Z,99.90
2018-06-05T00:41:52.889Z,99.90
2018-06-05T00:44:21.424Z,99.90
2018-06-05T00:46:49.865Z,99.90
2018-06-05T00:49:18.364Z,99.90
2018-06-05T00:51:58.129Z,99.90
2018-06-05T00:54:27.429Z,99.90
2018-06-05T00:56:55.881Z,99.90
2018-06-05T00:59:24.357Z,99.90
2018-06-05T01:01:53.469Z,99.90
2018-06-05T01:04:21.944Z,99.90
2018-06-05T01:06:50.437Z,99.90
2018-06-05T01:09:19.766Z,99.90
2018-06-05T01:11:48.217Z,99.90
2018-06-05T01:14:17.017Z,99.90
2018-06-05T01:16:45.809Z,99.90
2018-06-05T01:19:14.269Z,99.90
2018-06-05T01:21:42.755Z,99.90
2018-06-05T01:24:11.259Z,99.90
2018-06-05T01:26:39.716Z,99.90
2018-06-05T01:29:08.173Z,99.90
2018-06-05T01:31:36.949Z,99.90
2018-06-05T01:34:05.805Z,99.90
2018-06-05T01:36:34.562Z,99.90
2018-06-05T01:39:03.145Z,99.90
2018-06-05T01:41:31.572Z,99.90
2018-06-05T01:44:00.049Z,99.90
2018-06-05T01:46:28.525Z,99.90
2018-06-05T01:48:56.985Z,99.90
2018-06-05T01:51:25.449Z,99.90
2018-06-05T01:53:53.893Z,99.90
2018-06-05T01:56:22.336Z,99.90
2018-06-05T01:58:50.812Z,99.90
2018-06-05T02:01:19.297Z,99.90
2018-06-05T02:03:47.753Z,99.90
2018-06-05T02:06:16.892Z,99.90
2018-06-05T02:08:45.333Z,99.90
2018-06-05T02:11:14.106Z,99.90
2018-06-05T02:13:42.619Z,99.90
2018-06-05T02:16:11.069Z,99.90
2018-06-05T02:18:39.520Z,99.90
2018-06-05T02:21:07.989Z,99.90
2018-06-05T02:23:36.752Z,99.90
2018-06-05T02:26:05.548Z,99.90
2018-06-05T02:28:34.291Z,99.90
2018-06-05T02:31:03.115Z,99.90
2018-06-05T02:33:31.918Z,99.90
2018-06-05T02:36:00.381Z,99.90
2018-06-05T02:38:28.849Z,99.90
2018-06-05T02:40:57.305Z,99.90
2018-06-05T02:43:25.790Z,99.90
2018-06-05T02:45:54.222Z,99.90
2018-06-05T02:48:22.704Z,99.90
2018-06-05T02:50:51.185Z,99.90
2018-06-05T02:53:19.612Z,99.90
2018-06-05T02:55:48.376Z,99.90
2018-06-05T02:58:16.884Z,99.90
2018-06-05T03:00:45.641Z,99.90
2018-06-05T03:03:14.106Z,99.90
2018-06-05T03:05:42.597Z,99.90
2018-06-05T03:08:11.080Z,99.90
2018-06-05T03:10:39.549Z,99.90
2018-06-05T03:13:08.032Z,99.90
2018-06-05T03:15:36.521Z,99.90
2018-06-05T03:18:05.069Z,99.90
2018-06-05T03:20:33.520Z,99.90
2018-06-05T03:23:02.313Z,99.90
2018-06-05T03:25:31.445Z,99.90
2018-06-05T03:27:59.912Z,99.90
2018-06-05T03:30:28.374Z,99.90
2018-06-05T03:32:56.809Z,99.90
2018-06-05T03:35:25.281Z,99.90
2018-06-05T03:37:53.741Z,99.90
2018-06-05T03:40:22.197Z,99.90
2018-06-05T03:42:50.656Z,99.90
2018-06-05T03:45:19.111Z,99.90
2018-06-05T03:47:47.560Z,99.90
2018-06-05T03:50:16.037Z,99.90
2018-06-05T03:52:44.824Z,99.90
2018-06-05T03:55:14.185Z,99.90
2018-06-05T03:57:42.633Z,99.90
2018-06-05T04:00:11.093Z,99.90
2018-06-05T04:02:39.569Z,99.90
2018-06-05T04:05:08.057Z,99.90
2018-06-05T04:07:36.527Z,99.90
2018-06-05T04:10:05.460Z,99.90
2018-06-05T04:12:34.264Z,99.90
2018-06-05T04:15:02.709Z,99.90
2018-06-05T04:17:31.502Z,99.90
2018-06-05T04:19:59.958Z,99.90
2018-06-05T04:22:28.421Z,99.90
2018-06-05T04:24:56.867Z,99.90
2018-06-05T04:27:25.353Z,99.90
2018-06-05T04:29:53.834Z,99.90
2018-06-05T04:32:22.621Z,99.90
2018-06-05T04:34:51.083Z,99.90
2018-06-05T04:37:19.896Z,99.90
2018-06-05T04:39:48.691Z,99.90
2018-06-05T04:42:17.177Z,99.90
2018-06-05T04:44:45.744Z,99.90
2018-06-05T04:47:14.198Z,99.90
2018-06-05T04:49:42.844Z,99.90
2018-06-05T04:52:11.691Z,99.90
2018-06-05T04:54:40.484Z,99.90
2018-06-05T04:57:09.602Z,99.90
2018-06-05T04:59:38.538Z,99.90
2018-06-05T05:02:06.980Z,99.90
2018-06-05T05:04:35.412Z,99.90
2018-06-05T05:07:04.616Z,99.90
2018-06-05T05:09:34.250Z,99.90
2018-06-05T05:12:03.050Z,99.90
2018-06-05T05:14:31.894Z,99.90
2018-06-05T05:17:00.864Z,99.90
2018-06-05T05:19:29.373Z,99.90
2018-06-05T05:21:57.864Z,99.90
2018-06-05T05:24:26.310Z,99.90
2018-06-05T05:26:54.789Z,99.90
2018-06-05T05:29:23.592Z,99.90
2018-06-05T05:31:52.064Z,99.90
2018-06-05T05:34:20.569Z,99.90
2018-06-05T05:36:49.033Z,99.90
2018-06-05T05:39:18.141Z,99.90
2018-06-05T05:41:46.605Z,99.90
2018-06-05T05:44:15.054Z,99.90
2018-06-05T05:46:43.493Z,99.90
2018-06-05T05:49:13.922Z,99.90
2018-06-05T05:51:42.371Z,99.90
2018-06-05T05:54:10.856Z,99.90
2018-06-05T05:56:39.629Z,99.90
2018-06-05T05:59:16.376Z,99.90
2018-06-05T06:01:45.332Z,99.90
2018-06-05T06:04:15.601Z,99.90
2018-06-05T06:06:44.059Z,99.90
2018-06-05T06:09:14.144Z,99.90
2018-06-05T06:11:43.505Z,99.90
2018-06-05T06:14:11.944Z,99.90
2018-06-05T06:16:41.587Z,99.90
2018-06-05T06:19:10.189Z,99.90
2018-06-05T06:21:39.017Z,99.90
2018-06-05T06:24:07.471Z,99.90
2018-06-05T06:26:35.934Z,99.90
2018-06-05T06:29:04.403Z,99.90
2018-06-05T06:31:32.863Z,99.90
2018-06-05T06:34:01.345Z,99.90
2018-06-05T06:36:29.798Z,99.90
2018-06-05T06:38:58.291Z,99.90
2018-06-05T06:41:26.789Z,99.90
2018-06-05T06:43:55.243Z,99.90
2018-06-05T06:46:23.724Z,99.90
2018-06-05T06:48:52.192Z,99.90
2018-06-05T06:51:20.800Z,99.90
2018-06-05T06:53:49.259Z,99.90
2018-06-05T06:56:18.472Z,99.90
2018-06-05T06:58:46.912Z,99.90
2018-06-05T07:01:15.376Z,99.90
2018-06-05T07:03:44.189Z,99.90
2018-06-05T07:06:12.648Z,99.90
2018-06-05T07:08:41.089Z,99.90
2018-06-05T07:11:09.957Z,99.90
2018-06-05T07:13:39.057Z,99.90
2018-06-05T07:16:07.853Z,99.90
2018-06-05T07:18:36.297Z,99.90
2018-06-05T07:21:04.749Z,99.90
2018-06-05T07:23:33.191Z,99.90
2018-06-05T07:26:01.637Z,99.90
2018-06-05T07:28:30.101Z,99.90
2018-06-05T07:30:58.558Z,99.90
2018-06-05T07:33:27.003Z,99.90
2018-06-05T07:35:55.460Z,99.90
2018-06-05T07:38:23.899Z,99.90
2018-06-05T07:40:52.352Z,99.90
2018-06-05T07:43:20.800Z,99.90
2018-06-05T07:45:49.277Z,99.90
2018-06-05T07:48:18.053Z,99.90
2018-06-05T07:50:46.511Z,99.90
2018-06-05T07:53:14.944Z,99.90
2018-06-05T07:55:43.428Z,99.90
2018-06-05T07:58:11.922Z,99.90
2018-06-05T08:00:40.742Z,99.90
2018-06-05T08:03:09.185Z,99.90
2018-06-05T08:05:37.637Z,99.90
2018-06-05T08:08:06.093Z,99.90
2018-06-05T08:10:34.532Z,99.90
2018-06-05T08:13:02.977Z,99.90
2018-06-05T08:15:31.988Z,99.90
2018-06-05T08:18:00.445Z,99.90
2018-06-05T08:20:28.902Z,99.90
2018-06-05T08:22:57.569Z,99.90
2018-06-05T08:25:26.071Z,99.90
2018-06-05T08:27:54.525Z,99.90
2018-06-05T08:30:23.328Z,99.90
2018-06-05T08:32:51.764Z,99.90
2018-06-05T08:35:20.556Z,99.90
2018-06-05T08:37:49.384Z,99.90
2018-06-05T08:40:18.021Z,99.90
2018-06-05T08:42:46.452Z,99.90
2018-06-05T08:45:14.979Z,99.90
2018-06-05T08:47:43.636Z,99.90
2018-06-05T08:50:12.164Z,99.90
2018-06-05T08:52:40.600Z,99.90
2018-06-05T08:55:09.381Z,99.90
2018-06-05T08:57:37.811Z,99.90
2018-06-05T09:00:06.298Z,99.90
2018-06-05T09:02:34.768Z,99.90
2018-06-05T09:05:03.236Z,99.90
2018-06-05T09:07:31.690Z,99.90
2018-06-05T09:10:00.134Z,99.90
2018-06-05T09:12:28.600Z,99.90
2018-06-05T09:14:57.064Z,99.90
2018-06-05T09:17:25.529Z,99.90
2018-06-05T09:19:53.957Z,99.90
2018-06-05T09:22:22.732Z,99.90
2018-06-05T09:24:51.167Z,99.90
2018-06-05T09:27:19.616Z,99.90
2018-06-05T09:29:48.374Z,99.90
2018-06-05T09:32:16.836Z,99.90
2018-06-05T09:34:45.628Z,99.90
2018-06-05T09:37:14.080Z,99.90
2018-06-05T09:39:42.505Z,99.90
2018-06-05T09:42:11.304Z,99.90
2018-06-05T09:44:40.575Z,99.90
2018-06-05T09:47:09.247Z,99.90
2018-06-05T09:49:37.693Z,99.90
2018-06-05T09:53:09.341Z,99.90
2018-06-05T09:55:37.796Z,99.90
2018-06-05T09:58:07.062Z,99.90
2018-06-05T10:00:41.404Z,99.90
2018-06-05T10:03:09.892Z,99.90
2018-06-05T10:05:38.687Z,99.90
2018-06-05T10:08:07.674Z,99.90
2018-06-05T10:10:36.528Z,99.90
2018-06-05T10:13:04.972Z,99.90
2018-06-05T10:15:33.757Z,99.90
2018-06-05T10:18:02.201Z,99.90
2018-06-05T10:20:32.057Z,99.90
2018-06-05T10:23:00.802Z,99.90
2018-06-05T10:25:29.584Z,99.90
2018-06-05T10:27:58.046Z,99.90
2018-06-05T10:30:26.526Z,99.90
2018-06-05T10:32:54.965Z,99.90
2018-06-05T10:35:23.413Z,99.90
2018-06-05T10:37:51.850Z,99.90
2018-06-05T10:40:20.304Z,99.90
2018-06-05T10:42:48.760Z,99.90
2018-06-05T10:45:17.207Z,99.90
2018-06-05T10:47:46.197Z,99.90
2018-06-05T10:50:14.698Z,99.90
2018-06-05T10:52:43.489Z,99.90
2018-06-05T10:55:11.960Z,99.90
2018-06-05T10:57:40.405Z,99.90
2018-06-05T11:00:09.215Z,99.90
2018-06-05T11:02:38.357Z,99.90
2018-06-05T11:05:07.231Z,99.90
2018-06-05T11:07:36.011Z,99.90
2018-06-05T11:10:05.024Z,99.90
2018-06-05T11:12:33.852Z,99.90
2018-06-05T11:15:02.640Z,99.90
2018-06-05T11:17:31.474Z,99.90
2018-06-05T11:20:00.152Z,99.90
2018-06-05T11:22:28.949Z,99.90
2018-06-05T11:24:57.393Z,99.90
2018-06-05T11:27:25.837Z,99.90
2018-06-05T11:29:54.278Z,99.90
2018-06-05T11:32:23.073Z,99.90
2018-06-05T11:34:51.864Z,99.90
2018-06-05T11:37:20.317Z,99.90
2018-06-05T11:39:48.744Z,99.90
2018-06-05T11:42:17.202Z,99.90
2018-06-05T11:44:45.957Z,99.90
2018-06-05T11:47:14.400Z,99.90
2018-06-05T11:49:43.749Z,99.90
2018-06-05T11:52:12.196Z,99.90
2018-06-05T11:54:40.960Z,99.90
2018-06-05T11:57:09.432Z,99.90
2018-06-05T11:59:37.860Z,99.90
2018-06-05T12:02:06.428Z,99.90
2018-06-05T12:04:34.911Z,99.90
2018-06-05T12:07:03.692Z,99.90
2018-06-05T12:09:32.134Z,99.90
2018-06-05T12:12:00.605Z,99.90
2018-06-05T12:14:29.036Z,99.90
2018-06-05T12:16:57.483Z,99.90
2018-06-05T12:19:25.933Z,99.90
2018-06-05T12:21:54.379Z,99.90
2018-06-05T12:24:22.846Z,99.90
2018-06-05T12:26:51.636Z,99.90
2018-06-05T12:29:20.677Z,99.90
2018-06-05T12:31:49.125Z,99.90
2018-06-05T12:34:17.935Z,99.90
2018-06-05T12:36:46.389Z,99.90
2018-06-05T12:39:14.832Z,99.90
2018-06-05T12:41:43.302Z,99.90
2018-06-05T12:44:11.945Z,99.90
2018-06-05T12:46:40.432Z,99.90
2018-06-05T12:49:08.877Z,99.90
2018-06-05T12:51:37.673Z,99.90
2018-06-05T12:54:06.684Z,99.90
2018-06-05T12:56:35.146Z,99.90
2018-06-05T12:59:05.207Z,99.90
2018-06-05T13:01:33.681Z,99.90
2018-06-05T13:04:02.800Z,99.90
2018-06-05T13:06:31.300Z,99.90
2018-06-05T13:08:59.764Z,99.90
2018-06-05T13:11:28.729Z,99.90
2018-06-05T13:13:58.148Z,99.90
2018-06-05T13:16:26.925Z,99.90
2018-06-05T13:18:55.716Z,99.90
2018-06-05T13:21:24.169Z,99.90
2018-06-05T13:23:52.626Z,99.90
2018-06-05T13:26:21.103Z,99.90
2018-06-05T13:28:49.585Z,99.90
2018-06-05T13:31:18.068Z,99.90
2018-06-05T13:33:46.536Z,99.90
2018-06-05T13:36:17.073Z,99.90
2018-06-05T13:38:47.636Z,99.90
2018-06-05T13:41:16.113Z,99.90
2018-06-05T13:43:44.649Z,99.90
2018-06-05T13:46:13.285Z,99.90
2018-06-05T13:48:41.745Z,99.90
2018-06-05T13:51:10.294Z,99.90
2018-06-05T13:53:40.041Z,99.90
2018-06-05T13:56:08.500Z,99.90
2018-06-05T13:58:36.960Z,99.90
2018-06-05T14:01:05.770Z,99.90
2018-06-05T14:03:34.632Z,99.90
2018-06-05T14:06:03.132Z,99.90
2018-06-05T14:08:31.620Z,99.90
2018-06-05T14:11:00.417Z,99.90
2018-06-05T14:13:28.933Z,99.90
2018-06-05T14:15:57.462Z,99.90
2018-06-05T14:18:26.590Z,99.90
2018-06-05T14:20:55.081Z,99.90
2018-06-05T14:23:23.702Z,99.90
2018-06-05T14:25:52.334Z,99.90
2018-06-05T14:28:20.834Z,99.90
2018-06-05T14:30:49.645Z,99.90
2018-06-05T14:33:18.101Z,99.90
2018-06-05T14:35:46.616Z,99.90
2018-06-05T14:38:15.068Z,99.90
2018-06-05T14:40:43.614Z,99.90
2018-06-05T14:43:12.084Z,99.90
2018-06-05T14:45:40.542Z,99.90
2018-06-05T14:48:08.997Z,99.90
2018-06-05T14:50:37.862Z,99.90
2018-06-05T14:53:06.527Z,99.90
2018-06-05T14:55:35.010Z,99.90
2018-06-05T14:58:03.465Z,99.90
2018-06-05T15:00:31.945Z,99.90
2018-06-05T15:03:00.412Z,99.90
2018-06-05T15:05:29.316Z,99.90
2018-06-05T15:07:57.756Z,99.90
2018-06-05T15:10:26.648Z,99.90
2018-06-05T15:12:55.442Z,99.90
2018-06-05T15:15:23.969Z,99.90
2018-06-05T15:17:52.428Z,99.90
2018-06-05T15:20:20.914Z,99.90
2018-06-05T15:22:49.396Z,99.90
2018-06-05T15:25:18.496Z,99.90
2018-06-05T15:27:47.018Z,99.90
2018-06-05T15:30:16.162Z,99.90
2018-06-05T15:32:45.495Z,99.90
2018-06-05T15:35:14.053Z,99.90
2018-06-05T15:37:42.793Z,99.90
2018-06-05T15:40:11.936Z,99.90
2018-06-05T15:42:46.118Z,99.90
2018-06-05T15:47:58.711Z,99.90
2018-06-05T15:50:31.890Z,99.90
2018-06-05T15:53:10.432Z,99.90
2018-06-05T15:55:42.959Z,99.90
2018-06-05T15:58:16.823Z,99.90
2018-06-05T16:00:51.992Z,99.90
2018-06-05T16:03:21.843Z,99.90
2018-06-05T16:05:55.354Z,99.90
2018-06-05T16:08:25.594Z,99.90
2018-06-05T16:10:54.953Z,99.90
2018-06-05T16:13:23.517Z,99.90
2018-06-05T16:15:52.049Z,99.90
2018-06-05T16:18:20.508Z,99.90
2018-06-05T16:20:49.264Z,99.90
2018-06-05T16:23:17.770Z,99.90
2018-06-05T16:25:47.223Z,99.90
2018-06-05T16:28:15.685Z,99.60
2018-06-05T16:30:44.149Z,99.90
2018-06-05T16:33:12.873Z,99.60
2018-06-05T16:35:41.386Z,99.50
2018-06-05T16:38:09.906Z,99.90
2018-06-05T16:40:38.715Z,99.50
2018-06-05T16:43:07.668Z,99.40
2018-06-05T16:45:36.181Z,99.20
2018-06-05T16:48:04.682Z,99.40
2018-06-05T16:50:33.449Z,99.10
2018-06-05T16:53:02.331Z,99.20
2018-06-05T16:55:30.921Z,99.60
2018-06-05T16:57:59.432Z,99.40
2018-06-05T17:00:28.957Z,99.90
2018-06-05T17:02:57.447Z,99.90
2018-06-05T17:05:26.004Z,99.90
2018-06-05T17:07:54.528Z,99.90
2018-06-05T17:10:26.855Z,99.90
2018-06-05T17:12:55.612Z,99.60
2018-06-05T17:15:24.919Z,99.30
2018-06-05T17:17:53.360Z,99.80
2018-06-05T17:20:22.162Z,99.30
2018-06-05T17:22:51.243Z,98.90
2018-06-05T17:25:19.749Z,98.60
2018-06-05T17:27:48.197Z,98.50
2018-06-05T17:30:17.008Z,98.60
2018-06-05T17:32:45.507Z,98.80
2018-06-05T17:35:14.101Z,99.30
2018-06-05T17:37:42.537Z,99.20
2018-06-05T17:40:36.305Z,99.50
2018-06-05T17:43:06.167Z,99.50
2018-06-05T17:45:34.784Z,99.50
2018-06-05T17:48:03.412Z,99.40
2018-06-05T17:50:31.901Z,99.30
2018-06-05T17:53:00.719Z,99.30
2018-06-05T17:55:29.709Z,99.50
2018-06-05T17:57:58.181Z,99.70
2018-06-05T18:00:27.236Z,99.60
2018-06-05T18:02:55.668Z,99.60
2018-06-05T18:05:25.481Z,99.70
2018-06-05T18:07:55.749Z,99.90
2018-06-05T18:10:24.251Z,99.70
2018-06-05T18:12:53.346Z,99.90
2018-06-05T18:15:22.660Z,99.90
2018-06-05T18:17:51.962Z,99.70
2018-06-05T18:20:21.661Z,99.90
2018-06-05T18:22:51.022Z,99.90
2018-06-05T18:25:23.829Z,99.90
2018-06-05T18:27:52.266Z,99.90
2018-06-05T18:30:20.867Z,99.90
2018-06-05T18:32:50.022Z,99.80
2018-06-05T18:35:18.497Z,99.90
2018-06-05T18:37:47.349Z,99.90
2018-06-05T18:40:16.661Z,99.90
2018-06-05T18:42:45.647Z,99.90
2018-06-05T18:45:14.130Z,99.90
2018-06-05T18:47:56.505Z,99.90
2018-06-05T18:50:26.000Z,99.90
2018-06-05T18:52:54.930Z,99.90
2018-06-05T18:55:25.177Z,99.90
2018-06-05T18:57:59.747Z,99.90
2018-06-05T19:00:30.583Z,99.90
2018-06-05T19:03:02.093Z,99.90
2018-06-05T19:05:31.965Z,99.90
2018-06-05T19:08:02.877Z,99.90
2018-06-05T19:10:31.680Z,99.90
2018-06-05T19:13:00.215Z,99.90
2018-06-05T19:15:28.697Z,99.90
2018-06-05T19:17:57.215Z,99.90
2018-06-05T19:20:31.206Z,99.90
2018-06-05T19:23:00.953Z,99.90
2018-06-05T19:25:34.964Z,99.90
2018-06-05T19:28:05.326Z,99.90
2018-06-05T19:30:40.622Z,99.90
2018-06-05T19:33:10.101Z,99.90
2018-06-05T19:35:41.010Z,99.90
2018-06-05T19:38:10.429Z,99.90
2018-06-05T19:40:46.241Z,99.90
2018-06-05T19:43:31.871Z,99.90
2018-06-05T19:46:02.451Z,99.90
2018-06-05T19:48:31.338Z,99.90
2018-06-05T19:54:03.318Z,99.90
2018-06-05T19:56:33.178Z,99.90
2018-06-05T20:10:33.085Z,99.90
2018-06-05T20:13:13.925Z,99.90
2018-06-05T20:16:00.310Z,99.90
2018-06-05T20:21:38.665Z,99.90
2018-06-05T20:24:16.694Z,99.90
2018-06-05T20:26:45.843Z,99.90
2018-06-05T20:29:16.537Z,99.90
2018-06-05T20:31:45.613Z,99.90
2018-06-05T20:34:14.426Z,99.90
2018-06-05T20:36:42.909Z,99.90
2018-06-05T20:39:11.410Z,99.90
2018-06-05T20:41:39.904Z,99.90
2018-06-05T20:44:08.399Z,99.90
2018-06-05T20:46:36.880Z,99.90
2018-06-05T20:49:05.827Z,99.90
2018-06-05T20:51:34.338Z,99.90
2018-06-05T20:54:02.805Z,99.90
2018-06-05T20:56:31.300Z,99.90
2018-06-05T20:59:00.640Z,99.90
2018-06-05T21:01:35.060Z,99.90
2018-06-05T21:04:04.070Z,99.90
2018-06-05T21:06:32.550Z,99.90
2018-06-05T21:09:01.364Z,99.90
2018-06-05T21:11:29.824Z,99.90
2018-06-05T21:13:58.354Z,99.90
2018-06-05T21:16:27.988Z,99.90
2018-06-05T21:18:56.520Z,99.90
2018-06-05T21:21:25.379Z,99.90
2018-06-05T21:23:54.081Z,99.90
2018-06-05T21:26:22.570Z,99.90
2018-06-05T21:28:51.081Z,99.90
2018-06-05T21:31:20.002Z,99.90
2018-06-05T21:33:48.514Z,99.90
2018-06-05T21:36:17.334Z,99.90
2018-06-05T21:38:46.025Z,99.90
2018-06-05T21:41:16.520Z,99.90
2018-06-05T21:43:45.072Z,99.90
2018-06-05T21:46:13.584Z,99.90
2018-06-05T21:48:42.110Z,99.90
2018-06-05T21:51:15.229Z,99.90
2018-06-05T21:53:44.184Z,99.90
2018-06-05T21:56:13.938Z,99.90
2018-06-05T21:58:42.800Z,99.90
2018-06-05T22:01:18.244Z,99.90
2018-06-05T22:03:47.092Z,99.90
2018-06-05T22:06:15.694Z,99.90
2018-06-05T22:08:45.994Z,99.90
2018-06-05T22:11:14.789Z,99.90
2018-06-05T22:13:43.656Z,99.90
2018-06-05T22:16:12.769Z,99.90
2018-06-05T22:18:53.195Z,99.90
2018-06-05T22:21:23.058Z,99.90
2018-06-05T22:23:51.605Z,99.90
2018-06-05T22:26:20.137Z,99.90
2018-06-05T22:28:49.388Z,99.90
2018-06-05T22:31:18.224Z,99.90
2018-06-05T22:33:48.728Z,99.90
2018-06-05T22:36:17.207Z,99.90
2018-06-05T22:38:45.699Z,99.90
2018-06-05T22:41:15.213Z,99.90
2018-06-05T22:43:43.755Z,99.90
2018-06-05T22:46:12.238Z,99.90
2018-06-05T22:48:41.077Z,99.90
2018-06-05T22:51:09.604Z,99.90
2018-06-05T22:53:38.141Z,99.90
2018-06-05T22:56:07.899Z,99.90
2018-06-05T22:58:36.739Z,99.90
2018-06-05T23:01:05.566Z,99.90
2018-06-05T23:03:34.098Z,99.90
2018-06-05T23:06:02.589Z,99.90
2018-06-05T23:08:31.108Z,99.90
2018-06-05T23:11:00.398Z,99.90
2018-06-05T23:13:28.877Z,99.90
2018-06-05T23:15:57.613Z,99.90
2018-06-05T23:18:26.870Z,99.90
2018-06-05T23:20:55.351Z,99.90
2018-06-05T23:23:23.926Z,99.90
2018-06-05T23:25:52.464Z,99.90
2018-06-05T23:28:20.926Z,99.90
2018-06-05T23:30:49.386Z,99.90
2018-06-05T23:33:17.867Z,99.90
2018-06-05T23:35:46.455Z,99.90
2018-06-05T23:38:14.944Z,99.90
2018-06-05T23:40:43.434Z,99.90
2018-06-05T23:43:11.906Z,99.90
2018-06-05T23:45:40.710Z,99.90
2018-06-05T23:48:09.190Z,99.90
2018-06-05T23:50:37.668Z,99.90
2018-06-05T23:53:06.164Z,99.90
2018-06-05T23:55:34.659Z,99.90
2018-06-05T23:58:03.141Z,99.90
